Ana Sayfa
METAR-TAF:

METAR-TAF

Havaalanları :

Çanakkale Havalimanı

Çanakkale, Türkiye

Enlem: 40-08N, Boylam: 026-24E, yükseklik: 3 m

Güncel hava durumu gözlemi

Rapor saat 21:50 UTC de 42 dakika önce yapıldı.
Rüzgar kuzey/kuzeydoğudan 5 kt
Sıcaklık 4°C
Nem 93%
Basınç 1027 hPa
Görüş mesafesi 10 km veya daha fazla
1500 m altında bulut yok ve kümülonimbus yok

METAR: LTBH 202150Z 03005KT CAVOK 04/03 Q1027

Saat: 01:32 (22:32 UTC)

Tahmin

Rapor saat 19:40 UTC de 2 saat ve 52 dakika önce yapıldı.
Ayın 20'si saat 21 UTC'den ayın 21'si saat 06 UTC'ye kadar geçerli Tahmin
Rüzgar kuzeydoğudan 7 kt
Görüş mesafesi 10 km veya daha fazla
1500 m altında bulut yok ve kümülonimbus yok

TAF: LTBH 201940Z 2021/2106 05007KT CAVOK

4.000'den fazla havaalanı için hava durumu gözlemleri ve tahminleri (METAR ve TAF raporları).

Kullanılabilir istasyonlar harita üzerinde sarı ve kırmızı noktalarla gösterilir.

İstasyonun adını görmek için fareyi noktanın üzerinde gezdirin.

Sonrasında hava gözlem ve tahminlerini görmek için tıklayın.

Haritayı değiştirmek için: yaklaştırmak için siyah artı işaretli yeşil düğmeye ve uzaklaştırmak için de eksi işaretli düğmeye hızla tıklayın; bitişik haritalar için yeşil okları kullanın.


METAR-TAF: